Latest Weather Observations for Maryborough

IDQ60801

Issued at 7:35 am EST Wednesday 1 October 2014 (issued every 30 minutes, with the page automatically refreshed every 10 minutes)

About weather observations | Map of weather stations | Latest weather observations for QLD | Other Formats
Station Details ID: 040126 Name: MARYBOROUGH Lat: -25.52 Lon: 152.72 Height: 10.28 m
Data from the previous 72 hours. | See also: Recent months at Maryborough
Date/Time
EST
Temp
°C
App
Temp
°C
Dew
Point
Rel
Hum
%
Delta-T
°C
Wind Press
QNH
hPa
Press
MSL
hPa
Rain
since 9 am
mm
Dir
 
Spd
km/h
Gust
km/h
Spd
kts
Gust
kts
01/07:30am 19.2 18.2 14.7 75 2.6 NNW 13 19 7 10 1019.0 - 0.0
01/07:00am 17.1 16.0 14.2 83 1.7 NNW 13 15 7 8 1018.7 - 0.0
01/06:30am 14.8 14.7 13.8 94 0.6 N 7 7 4 4 1018.7 - 0.0
01/06:00am 12.9 12.5 12.3 96 0.3 N 6 6 3 3 1018.6 1018.5 0.0
01/05:30am 12.1 12.6 11.5 96 0.3 CALM 0 0 0 0 1018.6 - 0.0
01/05:22am 12.1 12.6 11.5 96 0.3 CALM 0 0 0 0 1018.5 - 0.0
01/05:07am 12.1 12.2 11.5 96 0.3 N 2 6 1 3 1018.4 - 0.0
01/05:00am 12.4 12.2 11.8 96 0.3 N 4 6 2 3 1018.4 - 0.0
01/04:37am 12.4 11.8 11.8 96 0.3 N 6 6 3 3 1018.3 - 0.0
01/04:30am 12.3 11.7 11.7 96 0.3 N 6 7 3 4 1018.3 - 0.0
01/04:00am 12.5 12.2 11.6 94 0.5 N 4 7 2 4 1018.2 - 0.0
01/03:30am 12.6 13.2 11.8 95 0.4 CALM 0 0 0 0 1018.1 - 0.0
01/03:11am 12.5 13.0 11.7 95 0.4 CALM 0 4 0 2 1018.1 - 0.0
01/03:00am 13.0 12.5 12.1 94 0.5 N 6 6 3 3 1018.2 1018.1 0.0
01/02:30am 13.4 13.1 12.8 96 0.3 N 6 7 3 4 1018.3 - 0.0
01/02:05am 12.8 13.4 12.0 95 0.4 CALM 0 0 0 0 1018.5 - 0.0
01/02:00am 12.9 13.5 12.0 94 0.5 CALM 0 0 0 0 1018.6 - 0.0
01/01:30am 13.4 14.2 12.6 95 0.4 CALM 0 0 0 0 1018.9 - 0.0
01/01:07am 13.1 13.7 12.0 93 0.6 CALM 0 0 0 0 1019.0 - 0.0
01/01:01am 13.1 13.8 12.2 94 0.5 CALM 0 0 0 0 1019.0 - 0.0
01/01:00am 13.2 14.0 12.4 95 0.4 CALM 0 0 0 0 1019.0 - 0.0
01/12:40am 13.4 14.1 12.3 93 0.6 CALM 0 0 0 0 1019.0 - 0.0
01/12:30am 13.1 13.7 11.8 92 0.7 CALM 0 0 0 0 1019.1 - 0.0
01/12:03am 13.8 14.7 12.9 94 0.5 CALM 0 0 0 0 1019.2 - 0.0
01/12:00am 13.6 14.4 12.5 93 0.6 N 0 0 0 0 1019.3 1019.2 0.0
 
Date/Time
EST
Temp
°C
App
Temp
°C
Dew
Point
Rel
Hum
%
Delta-T
°C
Wind Press
QNH
hPa
Press
MSL
hPa
Rain
since 9 am
mm
Dir
 
Spd
km/h
Gust
km/h
Spd
kts
Gust
kts
30/11:47pm 14.4 15.5 13.6 95 0.4 CALM 0 0 0 0 1019.4 - 0.0
30/11:30pm 14.3 15.3 13.3 94 0.6 CALM 0 0 0 0 1019.6 - 0.0
30/11:00pm 14.1 14.9 12.5 90 0.9 CALM 0 0 0 0 1019.5 - 0.0
30/10:30pm 14.7 15.7 13.2 91 0.8 CALM 0 0 0 0 1019.7 - 0.0
30/10:00pm 15.2 16.1 12.9 86 1.3 CALM 0 0 0 0 1019.7 - 0.0
30/09:30pm 16.3 16.7 13.8 85 1.4 N 4 6 2 3 1019.6 - 0.0
30/09:00pm 17.0 16.9 13.9 82 1.8 N 7 9 4 5 1019.7 1019.7 0.0
30/08:30pm 16.9 16.3 13.4 80 2.0 N 9 9 5 5 1019.6 - 0.0
30/08:00pm 17.5 17.3 13.6 78 2.2 N 7 9 4 5 1019.4 - 0.0
30/07:30pm 18.0 17.4 13.5 75 2.5 N 9 11 5 6 1019.1 - 0.0
30/07:00pm 18.5 17.9 13.6 73 2.8 N 9 11 5 6 1018.7 - 0.0
30/06:30pm 19.0 18.0 13.4 70 3.2 N 11 13 6 7 1018.6 - 0.0
30/06:00pm 19.8 18.8 13.3 66 3.7 N 11 15 6 8 1018.2 1018.2 0.0
30/05:30pm 21.2 19.3 13.1 60 4.6 N 15 20 8 11 1017.9 - 0.0
30/05:00pm 22.3 20.1 13.4 57 5.1 N 17 22 9 12 1017.9 - 0.0
30/04:30pm 23.2 20.8 13.7 55 5.5 NNE 19 24 10 13 1017.8 - 0.0
30/04:00pm 23.6 20.8 12.6 50 6.3 NNE 19 24 10 13 1017.7 - 0.0
30/03:30pm 24.7 22.7 13.9 51 6.4 NNE 17 26 9 14 1017.6 - 0.0
30/03:00pm 24.8 22.5 14.0 51 6.4 NNE 19 28 10 15 1017.6 1017.6 0.0
30/02:30pm 25.4 23.3 14.8 52 6.3 N 19 26 10 14 1017.9 - 0.0
30/02:00pm 25.2 23.2 14.9 52 6.2 N 19 28 10 15 1018.0 - 0.0
30/01:30pm 25.3 23.4 14.1 50 6.6 N 17 24 9 13 1018.4 - 0.0
30/01:00pm 25.4 23.7 14.8 52 6.3 N 17 24 9 13 1018.9 - 0.0
30/12:30pm 25.1 23.5 13.9 49 6.6 N 15 24 8 13 1019.3 - 0.0
30/12:00pm 25.0 23.5 13.2 48 6.9 NNE 13 24 7 13 1019.7 1019.7 0.0
30/11:30am 24.3 21.9 12.6 48 6.7 N 17 28 9 15 1020.2 - 0.0
30/11:00am 24.5 22.6 14.3 53 6.0 NNW 17 26 9 14 1020.6 - 0.0
30/10:30am 24.3 23.3 13.5 51 6.3 N 11 20 6 11 1020.9 - 0.0
30/10:00am 23.1 22.2 13.8 55 5.4 N 11 19 6 10 1021.3 - 0.0
30/09:30am 23.2 23.1 16.0 64 4.4 N 11 17 6 9 1021.5 - 0.0
30/09:00am 21.8 21.3 13.9 61 4.6 NNW 9 13 5 7 1021.7 1021.7 0.0
30/08:30am 20.5 20.7 14.2 67 3.7 NNW 6 9 3 5 1021.7 - 0.0
30/08:00am 19.3 20.5 13.9 71 3.1 CALM 0 6 0 3 1021.6 - 0.0
30/07:30am 17.4 18.3 13.9 80 2.0 SSW 2 7 1 4 1021.5 - 0.0
30/07:00am 15.7 16.9 13.9 89 1.0 CALM 0 0 0 0 1021.4 - 0.0
30/06:30am 13.2 14.0 12.6 96 0.3 CALM 0 0 0 0 1021.1 - 0.0
30/06:00am 11.0 11.2 10.4 96 0.3 CALM 0 0 0 0 1020.7 1020.7 0.0
30/05:30am 10.4 10.3 9.6 95 0.4 CALM 0 0 0 0 1020.5 - 0.0
30/05:18am 11.1 11.3 10.5 96 0.3 CALM 0 0 0 0 1020.3 - 0.0
30/05:00am 11.1 11.3 10.6 97 0.3 CALM 0 0 0 0 1020.2 - 0.0
30/04:41am 10.9 11.0 10.3 96 0.3 CALM 0 0 0 0 1020.1 - 0.0
30/04:30am 11.0 11.2 10.4 96 0.3 CALM 0 0 0 0 1019.9 - 0.0
30/04:14am 11.1 11.3 10.5 96 0.3 CALM 0 0 0 0 1019.7 - 0.0
30/04:00am 11.3 11.5 10.7 96 0.3 CALM 0 0 0 0 1019.7 - 0.0
30/03:30am 11.0 11.2 10.4 96 0.3 CALM 0 0 0 0 1019.5 - 0.0
30/03:00am 10.9 11.0 10.1 95 0.4 CALM 0 0 0 0 1019.5 1019.5 0.0
30/02:30am 11.3 11.5 10.4 94 0.5 CALM 0 0 0 0 1019.6 - 0.0
30/02:00am 11.7 12.0 10.9 95 0.4 CALM 0 0 0 0 1019.6 - 0.0
30/01:35am 12.1 12.5 11.3 95 0.4 CALM 0 0 0 0 1019.7 - 0.0
30/01:30am 12.1 12.5 11.3 95 0.4 CALM 0 0 0 0 1019.8 - 0.0
30/01:16am 11.9 12.2 11.0 94 0.5 CALM 0 0 0 0 1019.8 - 0.0
30/01:00am 11.9 12.2 11.0 94 0.5 CALM 0 0 0 0 1020.0 - 0.0
30/12:30am 12.6 13.1 11.7 94 0.5 CALM 0 0 0 0 1020.3 - 0.0
30/12:12am 12.5 12.9 11.2 92 0.7 CALM 0 0 0 0 1020.4 - 0.0
30/12:00am 13.0 13.7 12.1 94 0.5 CALM 0 0 0 0 1020.4 1020.4 0.0
 
Date/Time
EST
Temp
°C
App
Temp
°C
Dew
Point
Rel
Hum
%
Delta-T
°C
Wind Press
QNH
hPa
Press
MSL
hPa
Rain
since 9 am
mm
Dir
 
Spd
km/h
Gust
km/h
Spd
kts
Gust
kts
29/11:51pm 13.0 13.6 11.9 93 0.6 CALM 0 0 0 0 1020.5 - 0.0
29/11:30pm 13.1 13.7 12.0 93 0.6 CALM 0 0 0 0 1020.5 - 0.0
29/11:00pm 13.0 13.5 11.6 91 0.7 CALM 0 0 0 0 1020.5 - 0.0
29/10:30pm 13.5 14.2 12.2 92 0.7 CALM 0 0 0 0 1020.4 - 0.0
29/10:00pm 13.7 14.3 11.9 89 1.0 CALM 0 0 0 0 1020.4 - 0.0
29/09:30pm 14.5 15.3 12.7 89 1.0 CALM 0 0 0 0 1020.5 - 0.0
29/09:00pm 14.9 15.3 12.6 86 1.3 N 2 6 1 3 1020.4 1020.4 0.0
29/08:30pm 16.1 16.0 13.4 84 1.5 N 6 7 3 4 1020.4 - 0.0
29/08:00pm 16.7 16.4 13.4 81 1.9 NE 7 7 4 4 1020.2 - 0.0
29/07:30pm 18.2 18.0 13.5 74 2.7 NE 7 9 4 5 1019.7 - 0.0
29/07:28pm 18.2 18.0 13.5 74 2.7 NE 7 9 4 5 1019.7 - 0.0
29/07:00pm 18.1 17.9 13.0 72 2.9 NNE 6 7 3 4 1019.4 - 0.0
29/06:40pm 19.2 18.9 13.4 69 3.3 NNE 7 9 4 5 1019.1 - 0.0
29/06:30pm 19.3 18.9 13.0 67 3.6 NE 7 11 4 6 1019.1 - 0.0
29/06:00pm 20.3 18.8 12.0 59 4.6 ENE 11 15 6 8 1018.7 1018.7 0.0
29/05:30pm 21.7 19.6 11.1 51 5.9 ENE 13 19 7 10 1018.2 - 0.0
29/05:00pm 22.6 19.6 10.7 47 6.6 ENE 17 22 9 12 1017.9 - 0.0
29/04:30pm 23.6 20.3 11.0 45 7.0 ENE 19 26 10 14 1017.5 - 0.0
29/04:00pm 24.1 20.9 11.1 44 7.3 ENE 19 24 10 13 1017.3 - 0.0
29/03:30pm 24.6 22.0 11.9 45 7.2 ENE 17 24 9 13 1017.3 - 0.0
29/03:00pm 25.2 22.9 11.7 43 7.7 E 15 22 8 12 1017.4 1017.4 0.0
29/02:30pm 25.6 22.3 11.0 40 8.2 E 19 28 10 15 1017.6 - 0.0
29/02:00pm 25.7 23.4 11.8 42 7.9 ENE 15 22 8 12 1017.8 - 0.0
29/01:30pm 24.8 22.2 10.7 41 7.9 ESE 15 22 8 12 1017.9 - 0.0
29/01:00pm 24.9 21.5 11.1 42 7.8 E 20 33 11 18 1018.2 - 0.0
29/12:30pm 25.1 24.0 13.0 47 7.0 ESE 11 20 6 11 1018.8 - 0.0
29/12:00pm 25.2 23.9 12.4 45 7.3 S 11 15 6 8 1019.2 1019.2 0.0
29/11:30am 24.1 22.3 12.1 47 6.8 E 13 22 7 12 1019.8 - 0.0
29/11:00am 23.6 22.8 12.9 51 6.2 NE 9 17 5 9 1020.1 - 0.0
29/10:30am 23.6 22.1 12.0 48 6.6 ENE 11 17 6 9 1020.5 - 0.0
29/10:00am 23.7 23.0 13.3 52 6.0 S 9 15 5 8 1020.9 - 0.0
29/09:30am 21.5 20.4 12.1 55 5.3 SE 9 15 5 8 1021.3 - 0.0
29/09:00am 21.7 20.7 13.3 59 4.8 S 11 15 6 8 1021.6 1021.6 0.0
29/08:30am 21.0 20.5 13.7 63 4.2 S 9 15 5 8 1021.8 - 0.0
29/08:00am 19.7 18.9 14.1 70 3.2 S 11 13 6 7 1021.5 - 0.0
29/07:30am 18.1 17.0 13.2 73 2.8 S 11 13 6 7 1021.4 - 0.0
29/07:00am 16.6 16.4 13.5 82 1.7 S 7 9 4 5 1021.0 - 0.0
29/06:30am 15.1 14.7 13.0 87 1.2 SSW 7 9 4 5 1020.8 - 0.0
29/06:00am 14.0 13.1 12.7 92 0.7 SW 9 11 5 6 1020.5 1020.5 0.0
29/05:30am 12.6 11.7 11.5 93 0.6 SW 7 9 4 5 1020.1 - 0.0
29/05:00am 12.6 13.0 11.3 92 0.7 CALM 0 0 0 0 1019.8 - 0.0
29/04:30am 12.7 11.8 11.3 91 0.7 SW 7 9 4 5 1019.7 - 0.0
29/04:00am 13.1 12.5 11.7 91 0.7 SW 6 7 3 4 1019.5 - 0.0
29/03:30am 13.4 12.7 11.3 87 1.1 SW 6 7 3 4 1019.4 - 0.0
29/03:00am 13.8 13.0 11.7 87 1.1 SSW 7 7 4 4 1019.5 1019.5 0.0
29/02:30am 14.2 13.7 11.9 86 1.2 SSW 6 7 3 4 1019.8 - 0.0
29/02:00am 14.3 13.9 12.5 89 1.0 SSW 6 7 3 4 1020.1 - 0.0
29/01:30am 14.4 14.0 12.3 87 1.1 SSW 6 7 3 4 1020.4 - 0.0
29/01:00am 15.0 14.6 12.9 87 1.2 S 7 9 4 5 1020.7 - 0.0
29/12:30am 14.3 13.8 12.5 89 1.0 S 7 11 4 6 1020.8 - 0.0
29/12:00am 14.6 14.0 12.3 86 1.2 SSE 7 11 4 6 1021.0 1021.0 0.0
 
Date/Time
EST
Temp
°C
App
Temp
°C
Dew
Point
Rel
Hum
%
Delta-T
°C
Wind Press
QNH
hPa
Press
MSL
hPa
Rain
since 9 am
mm
Dir
 
Spd
km/h
Gust
km/h
Spd
kts
Gust
kts
28/11:30pm 14.4 13.8 12.4 88 1.1 SSE 7 7 4 4 1021.2 - 0.0
28/11:00pm 14.5 14.5 12.4 87 1.1 SSE 4 6 2 3 1021.2 - 0.0
28/10:30pm 14.7 14.5 13.1 90 0.9 SSE 6 6 3 3 1021.3 - 0.0
28/10:00pm 13.6 12.6 11.1 85 1.3 SSE 7 9 4 5 1021.3 - 0.0
28/09:30pm 14.5 14.9 12.4 87 1.1 SSE 2 6 1 3 1021.2 - 0.0
28/09:00pm 15.1 15.9 12.6 85 1.4 CALM 0 0 0 0 1021.1 1021.1 0.0
28/08:30pm 14.7 14.0 11.5 81 1.7 E 6 7 3 4 1020.9 - 0.0
28/08:00pm 15.9 16.0 12.8 82 1.7 E 4 6 2 3 1020.6 - 0.0
28/07:30pm 16.1 16.8 12.3 78 2.1 CALM 0 0 0 0 1020.1 - 0.0
28/07:00pm 16.9 16.4 12.0 73 2.7 E 6 6 3 3 1019.8 - 0.0
28/06:30pm 17.6 17.0 11.8 69 3.2 E 6 7 3 4 1019.6 - 0.0
28/06:00pm 18.5 16.7 12.0 66 3.6 ESE 13 17 7 9 1019.4 1019.4 0.0
28/05:30pm 19.9 16.9 11.9 60 4.4 ESE 19 24 10 13 1019.1 - 0.0
28/05:00pm 21.2 18.1 12.3 57 5.0 ESE 20 26 11 14 1018.9 - 0.0
28/04:30pm 21.9 18.0 13.3 58 4.9 ESE 26 33 14 18 1019.0 - 0.0
28/04:00pm 21.6 18.4 13.2 59 4.8 ESE 22 30 12 16 1018.9 - 0.0
28/03:30pm 23.6 20.7 12.3 49 6.4 ESE 19 26 10 14 1018.8 - 0.0
28/03:00pm 24.0 20.6 12.6 49 6.5 ESE 22 33 12 18 1018.7 1018.7 0.0
28/02:30pm 23.6 20.6 13.8 54 5.7 E 22 32 12 17 1018.5 - 0.0
28/02:00pm 24.9 22.1 13.1 48 6.9 E 20 30 11 16 1018.7 - 0.0
28/01:30pm 23.2 20.1 11.6 48 6.5 E 19 26 10 14 1018.9 - 0.0
28/01:00pm 24.2 21.3 12.2 47 6.8 ESE 19 24 10 13 1019.3 - 0.0
28/12:30pm 24.2 22.6 14.0 53 6.0 SE 15 22 8 12 1019.7 - 0.0
28/12:00pm 23.5 20.7 12.5 50 6.3 ESE 19 35 10 19 1020.2 1020.2 0.0
28/11:30am 24.1 20.9 13.0 50 6.4 ESE 22 32 12 17 1020.5 - 0.0
28/11:00am 23.5 20.7 12.5 50 6.3 E 19 28 10 15 1020.7 - 0.0
28/10:30am 22.7 20.8 14.3 59 4.9 ESE 17 20 9 11 1021.3 - 0.0
28/10:00am 22.6 20.2 12.5 53 5.7 SE 17 24 9 13 1021.5 - 0.0
28/09:30am 20.9 19.6 13.6 63 4.2 E 13 19 7 10 1021.6 - 0.0
28/09:00am 20.9 20.9 15.2 70 3.4 SE 9 13 5 7 1021.8 1021.8 0.0
28/08:30am 19.6 18.5 14.4 72 3.0 S 13 19 7 10 1021.8 - 0.0
28/08:00am 19.4 18.3 14.2 72 3.0 SSE 13 19 7 10 1021.6 - 0.0

Other Formats:

Comma delimited format used in spreadsheet applications
http://www.bom.gov.au/fwo/IDQ60801/IDQ60801.94567.axf

JavaScript Object Notation format (JSON) in row-major order
http://www.bom.gov.au/fwo/IDQ60801/IDQ60801.94567.json